createdAt,value
2018-10-19T00:00:38.442Z,13.32
2018-10-19T00:03:05.920Z,12.52
2018-10-19T00:05:33.368Z,12.98
2018-10-19T00:08:00.804Z,11.25
2018-10-19T00:10:28.248Z,11.45
2018-10-19T00:12:55.711Z,13.32
2018-10-19T00:15:23.180Z,10.20
2018-10-19T00:17:50.669Z,10.68
2018-10-19T00:20:18.106Z,12.85
2018-10-19T00:22:45.569Z,11.23
2018-10-19T00:25:13.118Z,9.68
2018-10-19T00:27:40.538Z,12.18
2018-10-19T00:30:08.188Z,9.75
2018-10-19T00:32:35.608Z,10.57
2018-10-19T00:35:03.111Z,11.15
2018-10-19T00:37:31.201Z,10.52
2018-10-19T00:39:58.631Z,12.85
2018-10-19T00:42:26.082Z,10.80
2018-10-19T00:44:53.562Z,10.02
2018-10-19T00:47:21.017Z,13.20
2018-10-19T00:49:48.794Z,11.12
2018-10-19T00:52:16.236Z,12.32
2018-10-19T00:54:43.681Z,11.12
2018-10-19T00:57:11.157Z,13.38
2018-10-19T00:59:38.555Z,15.50
2018-10-19T01:02:06.000Z,12.70
2018-10-19T01:04:33.466Z,13.68
2018-10-19T01:07:00.916Z,10.93
2018-10-19T01:09:28.347Z,12.30
2018-10-19T01:11:55.839Z,12.00
2018-10-19T01:14:23.243Z,11.20
2018-10-19T01:16:50.721Z,11.57
2018-10-19T01:19:18.194Z,11.52
2018-10-19T01:21:45.619Z,11.50
2018-10-19T01:24:13.126Z,10.27
2018-10-19T01:26:40.569Z,11.80
2018-10-19T01:29:08.053Z,12.02
2018-10-19T01:31:35.574Z,10.10
2018-10-19T01:34:03.059Z,11.80
2018-10-19T01:36:30.512Z,11.70
2018-10-19T01:38:57.956Z,10.25
2018-10-19T01:41:25.406Z,13.15
2018-10-19T01:43:53.342Z,11.38
2018-10-19T01:46:20.787Z,11.35
2018-10-19T01:48:48.233Z,13.23
2018-10-19T01:51:15.818Z,12.80
2018-10-19T01:53:43.293Z,11.30
2018-10-19T01:56:10.748Z,12.13
2018-10-19T01:58:38.188Z,13.57
2018-10-19T02:01:05.648Z,14.18
2018-10-19T02:03:33.183Z,13.00
2018-10-19T02:06:00.631Z,15.57
2018-10-19T02:08:28.081Z,13.35
2018-10-19T02:10:55.555Z,12.10
2018-10-19T02:13:22.961Z,14.07
2018-10-19T02:15:50.371Z,11.90
2018-10-19T02:18:17.815Z,13.57
2018-10-19T02:20:45.263Z,15.88
2018-10-19T02:23:12.782Z,14.15
2018-10-19T02:25:40.275Z,12.75
2018-10-19T02:28:07.765Z,13.13
2018-10-19T02:30:35.257Z,12.48
2018-10-19T02:33:02.741Z,14.10
2018-10-19T02:35:30.159Z,12.95
2018-10-19T02:37:57.642Z,13.77
2018-10-19T02:40:25.069Z,13.30
2018-10-19T02:42:52.591Z,13.70
2018-10-19T02:45:20.138Z,12.70
2018-10-19T02:47:47.813Z,12.80
2018-10-19T02:50:15.268Z,12.55
2018-10-19T02:52:42.837Z,12.37
2018-10-19T02:55:10.327Z,11.98
2018-10-19T02:57:37.736Z,13.62
2018-10-19T03:00:05.190Z,16.50
2018-10-19T03:02:32.665Z,16.40
2018-10-19T03:05:00.266Z,14.27
2018-10-19T03:07:27.745Z,14.90
2018-10-19T03:09:55.208Z,14.90
2018-10-19T03:12:22.687Z,17.65
2018-10-19T03:14:50.138Z,15.07
2018-10-19T03:17:17.615Z,14.25
2018-10-19T03:19:45.015Z,13.70
2018-10-19T03:22:12.504Z,12.73
2018-10-19T03:24:40.030Z,11.90
2018-10-19T03:27:07.548Z,16.30
2018-10-19T03:29:35.001Z,17.30
2018-10-19T03:32:02.516Z,15.30
2018-10-19T03:34:29.971Z,13.50
2018-10-19T03:36:57.435Z,13.68
2018-10-19T03:39:25.804Z,12.93
2018-10-19T03:41:53.309Z,15.50
2018-10-19T03:44:20.731Z,14.80
2018-10-19T03:46:48.148Z,12.40
2018-10-19T03:49:15.682Z,16.12
2018-10-19T03:51:43.076Z,15.20
2018-10-19T03:54:10.548Z,14.50
2018-10-19T03:56:38.055Z,14.65
2018-10-19T03:59:05.604Z,15.70
2018-10-19T04:01:33.000Z,15.13
2018-10-19T04:04:00.462Z,16.58
2018-10-19T04:06:27.961Z,15.60
2018-10-19T04:08:55.471Z,13.45
2018-10-19T04:11:23.024Z,13.65
2018-10-19T04:13:50.492Z,14.75
2018-10-19T04:16:17.945Z,14.13
2018-10-19T04:18:45.384Z,15.02
2018-10-19T04:21:12.871Z,13.35
2018-10-19T04:23:40.250Z,14.90
2018-10-19T04:26:07.658Z,15.48
2018-10-19T04:28:35.165Z,14.80
2018-10-19T04:31:02.797Z,14.63
2018-10-19T04:33:30.258Z,14.35
2018-10-19T04:35:57.752Z,16.67
2018-10-19T04:38:25.246Z,14.20
2018-10-19T04:40:52.758Z,13.25
2018-10-19T04:43:20.852Z,14.63
2018-10-19T04:45:48.317Z,13.27
2018-10-19T04:48:15.767Z,14.20
2018-10-19T04:50:43.295Z,17.62
2018-10-19T04:53:10.770Z,16.17
2018-10-19T04:55:38.285Z,14.02
2018-10-19T04:58:05.800Z,14.43
2018-10-19T05:00:33.258Z,14.25
2018-10-19T05:03:00.744Z,15.60
2018-10-19T05:05:28.213Z,15.70
2018-10-19T05:07:55.645Z,16.20
2018-10-19T05:10:23.052Z,15.70
2018-10-19T05:12:50.547Z,14.82
2018-10-19T05:15:18.423Z,12.80
2018-10-19T05:17:45.864Z,13.98
2018-10-19T05:20:13.476Z,14.50
2018-10-19T05:22:40.765Z,13.75
2018-10-19T05:25:08.744Z,15.05
2018-10-19T05:27:36.201Z,17.12
2018-10-19T05:30:03.615Z,14.63
2018-10-19T05:32:31.045Z,13.85
2018-10-19T05:34:59.242Z,17.52
2018-10-19T05:37:26.685Z,14.50
2018-10-19T05:39:54.264Z,15.07
2018-10-19T05:42:21.700Z,15.43
2018-10-19T05:44:49.141Z,12.25
2018-10-19T05:47:16.638Z,14.95
2018-10-19T05:49:44.186Z,13.23
2018-10-19T05:52:11.774Z,14.38
2018-10-19T05:54:39.221Z,17.62
2018-10-19T05:57:06.654Z,17.48
2018-10-19T05:59:34.100Z,18.62
2018-10-19T06:02:01.723Z,16.42
2018-10-19T06:04:29.133Z,17.83
2018-10-19T06:06:56.618Z,19.60
2018-10-19T06:09:24.147Z,17.45
2018-10-19T06:11:51.733Z,16.80
2018-10-19T06:14:19.200Z,16.33
2018-10-19T06:16:46.651Z,17.70
2018-10-19T06:19:14.343Z,15.02
2018-10-19T06:21:41.771Z,17.35
2018-10-19T06:24:09.718Z,15.55
2018-10-19T06:26:37.245Z,14.43
2018-10-19T06:29:04.728Z,15.45
2018-10-19T06:31:32.237Z,17.48
2018-10-19T06:33:59.751Z,15.48
2018-10-19T06:36:27.501Z,16.62
2018-10-19T06:38:54.957Z,17.17
2018-10-19T06:41:22.420Z,16.58
2018-10-19T06:43:49.863Z,17.15
2018-10-19T06:46:17.345Z,18.58
2018-10-19T06:48:45.039Z,15.10
2018-10-19T06:51:12.632Z,18.45
2018-10-19T06:53:40.174Z,18.58
2018-10-19T06:56:07.729Z,16.70
2018-10-19T06:58:35.193Z,18.00
2018-10-19T07:01:02.677Z,19.92
2018-10-19T07:03:30.128Z,18.17
2018-10-19T07:05:57.693Z,17.58
2018-10-19T07:08:25.098Z,15.52
2018-10-19T07:10:52.616Z,18.55
2018-10-19T07:13:20.296Z,16.98
2018-10-19T07:15:47.775Z,17.73
2018-10-19T07:18:15.235Z,16.60
2018-10-19T07:20:42.762Z,19.42
2018-10-19T07:23:10.471Z,17.42
2018-10-19T07:25:37.815Z,18.80
2018-10-19T07:28:05.301Z,23.15
2018-10-19T07:30:33.306Z,21.65
2018-10-19T07:33:00.863Z,18.70
2018-10-19T07:35:28.318Z,22.45
2018-10-19T07:37:55.823Z,21.73
2018-10-19T07:40:23.204Z,24.37
2018-10-19T07:42:51.074Z,21.23
2018-10-19T07:45:18.568Z,21.05
2018-10-19T07:47:46.319Z,20.52
2018-10-19T07:50:13.740Z,20.30
2018-10-19T07:52:41.153Z,20.90
2018-10-19T07:55:08.819Z,18.17
2018-10-19T07:57:36.239Z,21.25
2018-10-19T08:00:03.690Z,22.62
2018-10-19T08:02:31.132Z,19.65
2018-10-19T08:04:58.627Z,21.42
2018-10-19T08:07:26.101Z,23.20
2018-10-19T08:09:53.547Z,24.40
2018-10-19T08:12:20.974Z,24.80
2018-10-19T08:14:48.543Z,23.90
2018-10-19T08:17:16.064Z,26.37
2018-10-19T08:19:43.678Z,27.55
2018-10-19T08:22:11.105Z,24.20
2018-10-19T08:24:38.680Z,21.83
2018-10-19T08:27:06.379Z,26.23
2018-10-19T08:29:33.866Z,24.92
2018-10-19T08:32:01.407Z,26.02
2018-10-19T08:34:28.856Z,25.35
2018-10-19T08:36:56.386Z,28.15
2018-10-19T08:39:23.883Z,27.90
2018-10-19T08:41:57.268Z,27.23
2018-10-19T08:44:24.729Z,29.10
2018-10-19T08:46:52.151Z,28.00
2018-10-19T08:49:19.590Z,27.02
2018-10-19T08:51:47.059Z,32.05
2018-10-19T08:54:14.508Z,30.60
2018-10-19T08:56:41.922Z,28.50
2018-10-19T08:59:10.200Z,29.75
2018-10-19T09:01:37.694Z,28.87
2018-10-19T09:04:05.109Z,29.87
2018-10-19T09:06:32.655Z,33.13
2018-10-19T09:09:00.165Z,31.98
2018-10-19T09:11:27.754Z,31.27
2018-10-19T09:13:55.221Z,35.30
2018-10-19T09:16:22.704Z,34.78
2018-10-19T09:18:50.214Z,32.83
2018-10-19T09:21:17.722Z,38.60
2018-10-19T09:23:45.184Z,29.15
2018-10-19T09:26:13.016Z,31.35
2018-10-19T09:28:40.843Z,28.58
2018-10-19T09:31:08.256Z,31.42
2018-10-19T09:33:35.733Z,35.03
2018-10-19T09:36:03.203Z,30.15
2018-10-19T09:38:30.741Z,35.88
2018-10-19T09:40:59.459Z,31.77
2018-10-19T09:43:26.881Z,32.35
2018-10-19T09:45:54.492Z,29.92
2018-10-19T09:48:22.112Z,33.33
2018-10-19T09:50:49.555Z,28.40
2018-10-19T09:53:17.038Z,30.40
2018-10-19T09:55:44.554Z,31.10
2018-10-19T09:58:11.989Z,32.00
2018-10-19T10:00:39.479Z,32.75
2018-10-19T10:03:07.046Z,34.65
2018-10-19T10:05:34.462Z,34.83
2018-10-19T10:08:01.970Z,35.85
2018-10-19T10:10:29.355Z,32.35
2018-10-19T10:12:56.934Z,35.75
2018-10-19T10:15:24.525Z,35.58
2018-10-19T10:17:51.911Z,33.25
2018-10-19T10:20:19.414Z,34.13
2018-10-19T10:22:47.031Z,32.85
2018-10-19T10:25:14.568Z,35.67
2018-10-19T10:27:41.988Z,33.55
2018-10-19T10:30:09.447Z,29.90
2018-10-19T10:32:36.890Z,32.45
2018-10-19T10:35:04.365Z,34.65
2018-10-19T10:37:31.822Z,32.80
2018-10-19T10:39:59.278Z,32.30
2018-10-19T10:42:27.135Z,34.03
2018-10-19T10:44:54.599Z,30.33
2018-10-19T10:47:22.011Z,31.65
2018-10-19T10:49:49.502Z,32.70
2018-10-19T10:52:16.994Z,32.75
2018-10-19T10:54:44.467Z,34.58
2018-10-19T10:57:11.892Z,34.97
2018-10-19T10:59:39.807Z,34.85
2018-10-19T11:02:07.385Z,40.00
2018-10-19T11:04:34.824Z,28.58
2018-10-19T11:07:02.658Z,33.25
2018-10-19T11:09:30.104Z,36.08
2018-10-19T11:11:57.882Z,35.05
2018-10-19T11:14:25.305Z,36.75
2018-10-19T11:16:52.742Z,35.83
2018-10-19T11:19:20.345Z,37.33
2018-10-19T11:21:47.818Z,33.58
2018-10-19T11:24:15.347Z,33.72
2018-10-19T11:26:42.910Z,35.30
2018-10-19T11:29:10.314Z,35.58
2018-10-19T11:31:37.881Z,33.55
2018-10-19T11:34:05.376Z,32.22
2018-10-19T11:36:32.889Z,34.05
2018-10-19T11:39:00.355Z,34.30
2018-10-19T11:41:27.872Z,32.92
2018-10-19T11:43:55.348Z,34.17
2018-10-19T11:46:22.891Z,40.75
2018-10-19T11:48:50.496Z,33.95
2018-10-19T11:51:17.826Z,33.60
2018-10-19T11:53:45.470Z,36.72
2018-10-19T11:56:12.931Z,33.28
2018-10-19T11:58:40.379Z,38.05
2018-10-19T12:01:07.913Z,35.97
2018-10-19T12:03:35.601Z,33.03
2018-10-19T12:06:03.068Z,37.28
2018-10-19T12:08:30.592Z,34.35
2018-10-19T12:10:58.180Z,34.95
2018-10-19T12:13:25.668Z,34.80
2018-10-19T12:15:53.874Z,36.50
2018-10-19T12:18:21.278Z,36.00
2018-10-19T12:20:48.754Z,32.97
2018-10-19T12:23:16.263Z,37.85
2018-10-19T12:25:43.791Z,33.28
2018-10-19T12:28:11.232Z,32.13
2018-10-19T12:30:38.644Z,34.75
2018-10-19T12:33:06.366Z,32.05
2018-10-19T12:35:33.771Z,30.60
2018-10-19T12:38:01.239Z,34.70
2018-10-19T12:40:28.679Z,32.78
2018-10-19T12:42:56.307Z,33.00
2018-10-19T12:45:23.710Z,30.92
2018-10-19T12:47:51.197Z,32.60
2018-10-19T12:50:18.613Z,33.00
2018-10-19T12:52:46.342Z,30.48
2018-10-19T12:55:13.906Z,35.55
2018-10-19T12:57:41.676Z,37.28
2018-10-19T13:00:09.251Z,34.85
2018-10-19T13:02:36.828Z,36.10
2018-10-19T13:05:04.272Z,34.33
2018-10-19T13:07:31.678Z,35.95
2018-10-19T13:09:59.173Z,38.05
2018-10-19T13:12:26.662Z,35.10
2018-10-19T13:14:54.203Z,36.85
2018-10-19T13:17:21.619Z,36.10
2018-10-19T13:19:49.100Z,35.83
2018-10-19T13:22:16.621Z,35.83
2018-10-19T13:24:44.175Z,39.80
2018-10-19T13:27:11.732Z,36.78
2018-10-19T13:29:39.260Z,31.70
2018-10-19T13:32:06.748Z,38.00
2018-10-19T13:34:34.224Z,34.00
2018-10-19T13:37:01.716Z,34.35
2018-10-19T13:39:29.354Z,34.63
2018-10-19T13:41:56.791Z,34.22
2018-10-19T13:44:24.234Z,40.38
2018-10-19T13:46:51.764Z,35.53
2018-10-19T13:49:20.358Z,38.00
2018-10-19T13:51:47.858Z,36.17
2018-10-19T13:54:15.371Z,37.55
2018-10-19T13:56:42.771Z,39.28
2018-10-19T13:59:10.306Z,36.60
2018-10-19T14:01:38.427Z,39.15
2018-10-19T14:04:05.966Z,39.08
2018-10-19T14:06:33.756Z,36.67
2018-10-19T14:09:01.198Z,32.53
2018-10-19T14:11:28.688Z,36.97
2018-10-19T14:13:56.127Z,35.95
2018-10-19T14:16:23.536Z,31.10
2018-10-19T14:18:51.035Z,31.05
2018-10-19T14:21:18.543Z,29.92
2018-10-19T14:23:45.983Z,27.48
2018-10-19T14:26:13.429Z,31.65
2018-10-19T14:28:40.935Z,34.10
2018-10-19T14:31:08.348Z,38.33
2018-10-19T14:33:35.901Z,33.88
2018-10-19T14:36:03.327Z,32.42
2018-10-19T14:38:30.805Z,36.65
2018-10-19T14:40:58.278Z,38.35
2018-10-19T14:43:25.787Z,34.58
2018-10-19T14:45:53.225Z,35.72
2018-10-19T14:48:20.720Z,38.67
2018-10-19T14:50:48.230Z,41.08
2018-10-19T14:53:15.924Z,41.90
2018-10-19T14:55:43.350Z,42.65
2018-10-19T14:58:10.819Z,41.83
2018-10-19T15:00:38.302Z,39.85
2018-10-19T15:03:05.812Z,43.90
2018-10-19T15:05:33.363Z,44.22
2018-10-19T15:08:00.878Z,47.62
2018-10-19T15:10:28.505Z,48.28
2018-10-19T15:12:55.890Z,41.60
2018-10-19T15:15:24.416Z,39.30
2018-10-19T15:17:51.904Z,40.53
2018-10-19T15:20:19.316Z,39.20
2018-10-19T15:22:46.732Z,38.00
2018-10-19T15:25:14.219Z,37.78
2018-10-19T15:27:41.655Z,38.20
2018-10-19T15:30:09.211Z,33.80
2018-10-19T15:32:36.771Z,42.95
2018-10-19T15:35:04.273Z,37.42
2018-10-19T15:37:31.757Z,34.17
2018-10-19T15:39:59.219Z,34.13
2018-10-19T15:42:26.743Z,34.80
2018-10-19T15:44:54.929Z,32.97
2018-10-19T15:47:22.464Z,30.58
2018-10-19T15:49:50.131Z,31.30
2018-10-19T15:52:17.623Z,32.90
2018-10-19T15:54:45.180Z,37.33
2018-10-19T15:57:12.674Z,40.05
2018-10-19T15:59:40.119Z,30.80
2018-10-19T16:02:07.603Z,31.48
2018-10-19T16:04:35.106Z,30.00
2018-10-19T16:07:02.559Z,33.38
2018-10-19T16:09:29.985Z,34.10
2018-10-19T16:11:57.446Z,31.58
2018-10-19T16:14:24.820Z,35.15
2018-10-19T16:16:52.290Z,35.58
2018-10-19T16:19:19.774Z,28.58
2018-10-19T16:21:47.264Z,27.48
2018-10-19T16:24:14.824Z,29.27
2018-10-19T16:26:42.268Z,31.73
2018-10-19T16:29:09.755Z,34.90
2018-10-19T16:31:37.279Z,32.92
2018-10-19T16:34:04.720Z,32.50
2018-10-19T16:36:32.260Z,31.75
2018-10-19T16:38:59.698Z,28.20
2018-10-19T16:41:27.152Z,28.98
2018-10-19T16:43:54.612Z,32.25
2018-10-19T16:46:22.059Z,29.23
2018-10-19T16:48:49.511Z,31.77
2018-10-19T16:51:17.649Z,33.85
2018-10-19T16:53:45.919Z,28.55
2018-10-19T16:56:13.328Z,27.05
2018-10-19T16:58:41.017Z,34.60
2018-10-19T17:01:08.525Z,30.30
2018-10-19T17:03:36.012Z,29.35
2018-10-19T17:06:03.473Z,25.45
2018-10-19T17:08:31.052Z,29.58
2018-10-19T17:10:58.538Z,27.42
2018-10-19T17:13:25.954Z,27.08
2018-10-19T17:15:53.421Z,27.55
2018-10-19T17:18:20.955Z,32.22
2018-10-19T17:20:48.463Z,31.75
2018-10-19T17:23:15.884Z,26.10
2018-10-19T17:25:43.384Z,28.38
2018-10-19T17:28:10.828Z,33.70
2018-10-19T17:30:38.353Z,27.77
2018-10-19T17:33:05.836Z,24.27
2018-10-19T17:35:33.280Z,25.67
2018-10-19T17:38:00.762Z,26.52
2018-10-19T17:40:28.414Z,25.92
2018-10-19T17:42:55.935Z,28.27
2018-10-19T17:45:23.503Z,25.75
2018-10-19T17:47:51.052Z,30.00
2018-10-19T17:50:18.486Z,30.73
2018-10-19T17:52:45.956Z,33.13
2018-10-19T17:55:13.433Z,27.62
2018-10-19T17:57:41.030Z,27.85
2018-10-19T18:00:08.613Z,27.25
2018-10-19T18:02:36.110Z,29.73
2018-10-19T18:05:03.719Z,28.35
2018-10-19T18:07:31.160Z,29.35
2018-10-19T18:09:58.628Z,29.17
2018-10-19T18:12:26.084Z,29.23
2018-10-19T18:14:53.649Z,30.85
2018-10-19T18:17:21.086Z,26.40
2018-10-19T18:19:48.589Z,24.75
2018-10-19T18:22:16.292Z,29.27
2018-10-19T18:24:44.177Z,29.02
2018-10-19T18:27:11.672Z,32.83
2018-10-19T18:29:39.155Z,30.77
2018-10-19T18:32:06.743Z,31.23
2018-10-19T18:34:34.175Z,32.05
2018-10-19T18:37:01.805Z,28.15
2018-10-19T18:39:29.287Z,27.33
2018-10-19T18:41:56.733Z,31.10
2018-10-19T18:44:24.276Z,28.60
2018-10-19T18:46:51.924Z,27.37
2018-10-19T18:49:19.622Z,35.22
2018-10-19T18:51:47.058Z,30.70
2018-10-19T18:54:14.480Z,31.27
2018-10-19T18:56:42.020Z,30.62
2018-10-19T18:59:09.554Z,25.42
2018-10-19T19:01:36.965Z,31.40
2018-10-19T19:04:04.357Z,31.80
2018-10-19T19:06:32.578Z,29.52
2018-10-19T19:09:00.066Z,32.13
2018-10-19T19:11:27.532Z,23.55
2018-10-19T19:13:55.135Z,29.52
2018-10-19T19:16:22.582Z,32.25
2018-10-19T19:18:51.115Z,31.58
2018-10-19T19:21:18.731Z,35.13
2018-10-19T19:23:46.146Z,27.77
2018-10-19T19:26:19.902Z,32.20
2018-10-19T19:28:47.721Z,28.77
2018-10-19T19:31:15.188Z,34.72
2018-10-19T19:36:34.900Z,43.10
2018-10-19T19:39:02.418Z,35.15
2018-10-19T19:41:29.835Z,28.50
2018-10-19T19:43:57.348Z,30.17
2018-10-19T19:46:24.817Z,30.33
2018-10-19T19:51:51.955Z,45.15
2018-10-19T19:54:19.559Z,35.88
2018-10-19T19:56:47.026Z,33.83
2018-10-19T19:59:14.585Z,29.42
2018-10-19T20:01:41.987Z,38.90
2018-10-19T20:04:09.443Z,29.08
2018-10-19T20:06:36.876Z,32.42
2018-10-19T20:09:04.392Z,30.30
2018-10-19T20:11:31.955Z,27.80
2018-10-19T20:13:59.473Z,25.00
2018-10-19T20:16:26.954Z,30.62
2018-10-19T20:18:54.620Z,30.60
2018-10-19T20:21:22.102Z,29.40
2018-10-19T20:23:49.900Z,30.37
2018-10-19T20:26:17.444Z,32.17
2018-10-19T20:28:45.899Z,29.23
2018-10-19T20:31:13.444Z,29.80
2018-10-19T20:33:41.385Z,26.42
2018-10-19T20:36:08.911Z,29.83
2018-10-19T20:38:36.513Z,31.20
2018-10-19T20:41:04.521Z,29.35
2018-10-19T20:43:32.440Z,29.50
2018-10-19T20:45:59.897Z,26.83
2018-10-19T20:48:27.527Z,28.48
2018-10-19T20:50:55.143Z,27.25
2018-10-19T20:53:23.455Z,28.05
2018-10-19T20:55:51.023Z,24.95
2018-10-19T20:58:18.509Z,26.08
2018-10-19T21:00:46.034Z,26.85
2018-10-19T21:03:13.466Z,27.00
2018-10-19T21:05:42.052Z,24.98
2018-10-19T21:08:09.555Z,27.10
2018-10-19T21:10:38.746Z,28.27
2018-10-19T21:13:06.276Z,28.25
2018-10-19T21:15:33.762Z,24.92
2018-10-19T21:18:01.208Z,26.27
2018-10-19T21:20:28.851Z,29.33
2018-10-19T21:22:56.349Z,26.35
2018-10-19T21:25:23.822Z,26.58
2018-10-19T21:27:51.592Z,27.87
2018-10-19T21:30:19.185Z,26.45
2018-10-19T21:32:47.183Z,26.95
2018-10-19T21:35:14.755Z,24.75
2018-10-19T21:37:42.476Z,25.73
2018-10-19T21:40:10.151Z,29.95
2018-10-19T21:42:37.633Z,25.02
2018-10-19T21:45:05.279Z,28.55
2018-10-19T21:47:32.880Z,24.17
2018-10-19T21:50:00.502Z,25.27
2018-10-19T21:52:28.040Z,27.27
2018-10-19T21:54:55.552Z,30.80
2018-10-19T21:57:22.994Z,24.45
2018-10-19T21:59:50.530Z,24.90
2018-10-19T22:02:17.949Z,26.10
2018-10-19T22:04:45.531Z,26.50
2018-10-19T22:07:13.007Z,27.23
2018-10-19T22:09:41.360Z,27.37
2018-10-19T22:12:08.808Z,24.63
2018-10-19T22:14:36.298Z,27.77
2018-10-19T22:17:03.868Z,27.08
2018-10-19T22:19:31.702Z,25.90
2018-10-19T22:21:59.123Z,25.30
2018-10-19T22:24:26.645Z,28.25
2018-10-19T22:26:54.085Z,26.65
2018-10-19T22:29:21.531Z,27.92
2018-10-19T22:31:49.000Z,26.70
2018-10-19T22:34:16.626Z,24.27
2018-10-19T22:36:44.140Z,28.05
2018-10-19T22:39:11.575Z,27.10
2018-10-19T22:41:39.062Z,24.75
2018-10-19T22:44:06.719Z,26.62
2018-10-19T22:46:34.389Z,27.02
2018-10-19T22:49:02.146Z,28.52
2018-10-19T22:51:30.092Z,32.60
2018-10-19T22:53:57.663Z,26.50
2018-10-19T22:56:25.304Z,24.60
2018-10-19T22:58:52.813Z,28.23
2018-10-19T23:01:20.466Z,27.40
2018-10-19T23:03:47.965Z,25.45
2018-10-19T23:06:15.584Z,28.87
2018-10-19T23:08:43.069Z,28.83
2018-10-19T23:11:10.940Z,27.50
2018-10-19T23:13:38.479Z,27.80
2018-10-19T23:16:05.953Z,28.80
2018-10-19T23:18:33.549Z,30.83
2018-10-19T23:21:01.105Z,30.95
2018-10-19T23:23:28.679Z,29.20
2018-10-19T23:25:56.153Z,29.50
2018-10-19T23:28:23.680Z,25.88
2018-10-19T23:30:51.099Z,33.17
2018-10-19T23:33:18.535Z,24.17
2018-10-19T23:35:46.058Z,27.15
2018-10-19T23:38:13.832Z,27.00
2018-10-19T23:40:41.325Z,27.65
2018-10-19T23:43:10.069Z,32.80
2018-10-19T23:45:37.532Z,26.25
2018-10-19T23:48:05.034Z,22.60
2018-10-19T23:50:32.725Z,25.67
2018-10-19T23:53:00.317Z,27.08
2018-10-19T23:55:27.770Z,25.95
2018-10-19T23:57:55.209Z,26.58
